Time;durP1;ratioP1;P1;durP2;ratioP2;P2;SDS_P1;SDS_P2;PMS_P1;PMS_P2;Temp;Humidity;BMP_temperature;BMP_pressure;BME280_temperature;BME280_humidity;BME280_pressure;Samples;Min_cycle;Max_cycle;Signal;HPM_P1;HPM_P2
2021/08/21 00:01:13;;;;;;;11.60;6.80;;;;;;;;;;5014701;28;20590;-82
2021/08/21 00:03:38;;;;;;;14.77;6.03;;;;;;;;;;5014519;28;20428;-82
2021/08/21 00:06:03;;;;;;;10.77;6.47;;;;;;;;;;5014833;28;20072;-82
2021/08/21 00:08:28;;;;;;;11.40;6.43;;;;;;;;;;5014471;28;20113;-82
2021/08/21 00:10:54;;;;;;;13.30;6.68;;;;;;;;;;5014614;28;20018;-82
2021/08/21 00:13:19;;;;;;;9.57;6.53;;;;;;;;;;5014246;28;20018;-82
2021/08/21 00:15:45;;;;;;;12.88;6.82;;;;;;;;;;5014383;28;20024;-83
2021/08/21 00:18:10;;;;;;;8.65;5.65;;;;;;;;;;5014332;28;20029;-83
2021/08/21 00:20:36;;;;;;;14.88;6.78;;;;;;;;;;5014374;28;20452;-83
2021/08/21 00:23:01;;;;;;;9.77;6.25;;;;;;;;;;5014449;28;20029;-82
2021/08/21 00:25:26;;;;;;;11.90;6.38;;;;;;;;;;5014458;28;20423;-82
2021/08/21 00:27:51;;;;;;;11.38;6.78;;;;;;;;;;5013991;28;20116;-82
2021/08/21 00:30:16;;;;;;;11.30;6.43;;;;;;;;;;5014483;28;20049;-83
2021/08/21 00:32:42;;;;;;;10.20;6.13;;;;;;;;;;5014010;28;20060;-82
2021/08/21 00:35:08;;;;;;;10.73;6.22;;;;;;;;;;5014008;28;20428;-82
2021/08/21 00:37:34;;;;;;;9.52;5.93;;;;;;;;;;5027900;28;20048;-82
2021/08/21 00:39:59;;;;;;;14.68;5.82;;;;;;;;;;5014177;28;20022;-82
2021/08/21 00:42:24;;;;;;;11.45;5.95;;;;;;;;;;5013454;28;20026;-82
2021/08/21 00:44:50;;;;;;;8.48;5.65;;;;;;;;;;5014003;28;20014;-82
2021/08/21 00:47:19;;;;;;;10.57;5.35;;;;;;;;;;5013773;28;20030;-82
2021/08/21 00:49:46;;;;;;;11.55;6.15;;;;;;;;;;5047060;28;20030;-82
2021/08/21 00:52:15;;;;;;;11.32;6.38;;;;;;;;;;5013344;28;20491;-82
2021/08/21 00:54:41;;;;;;;9.88;5.60;;;;;;;;;;5013634;28;20045;-82
2021/08/21 00:57:07;;;;;;;11.77;5.72;;;;;;;;;;5013884;28;20115;-82
2021/08/21 00:59:33;;;;;;;9.25;5.45;;;;;;;;;;5014684;28;20026;-83
2021/08/21 01:01:59;;;;;;;8.95;6.28;;;;;;;;;;5013793;28;20033;-82
2021/08/21 01:04:24;;;;;;;10.38;6.35;;;;;;;;;;5013595;28;20026;-83
2021/08/21 01:06:49;;;;;;;10.38;5.90;;;;;;;;;;5013554;28;20072;-82
2021/08/21 01:09:14;;;;;;;13.02;5.63;;;;;;;;;;5013482;28;20073;-82
2021/08/21 01:11:40;;;;;;;12.77;5.25;;;;;;;;;;5013252;28;20024;-82
2021/08/21 01:14:05;;;;;;;11.88;5.72;;;;;;;;;;5013514;28;20029;-83
2021/08/21 01:16:31;;;;;;;10.10;5.80;;;;;;;;;;5013493;28;20030;-82
2021/08/21 01:18:56;;;;;;;13.15;5.82;;;;;;;;;;5012935;28;20022;-82
2021/08/21 01:21:21;;;;;;;12.50;5.97;;;;;;;;;;5013553;28;20177;-82
2021/08/21 01:23:47;;;;;;;9.93;6.10;;;;;;;;;;5013287;28;20220;-82
2021/08/21 01:26:12;;;;;;;10.80;6.20;;;;;;;;;;5013100;28;20025;-82
2021/08/21 01:28:38;;;;;;;12.93;7.07;;;;;;;;;;5013185;28;20018;-82
2021/08/21 01:31:04;;;;;;;8.98;6.22;;;;;;;;;;5013079;28;20018;-82
2021/08/21 01:33:29;;;;;;;13.57;6.40;;;;;;;;;;5014319;28;20458;-82
2021/08/21 01:35:54;;;;;;;11.63;6.30;;;;;;;;;;5012760;28;20017;-82
2021/08/21 01:38:19;;;;;;;19.33;6.20;;;;;;;;;;5013899;28;20485;-82
2021/08/21 01:40:49;;;;;;;10.55;5.78;;;;;;;;;;5012946;28;20653;-82
2021/08/21 01:43:14;;;;;;;9.70;5.50;;;;;;;;;;5036317;28;20029;-82
2021/08/21 01:45:39;;;;;;;13.50;6.25;;;;;;;;;;5020198;28;20034;-83
2021/08/21 01:48:06;;;;;;;14.63;6.88;;;;;;;;;;5012376;28;20025;-82
2021/08/21 01:50:31;;;;;;;13.38;6.70;;;;;;;;;;5012799;28;20018;-82
2021/08/21 01:52:56;;;;;;;11.65;6.93;;;;;;;;;;5011808;28;20025;-82
2021/08/21 01:55:23;;;;;;;18.38;7.25;;;;;;;;;;5012871;28;20022;-82
2021/08/21 01:57:48;;;;;;;16.98;6.85;;;;;;;;;;5012409;28;20025;-82
2021/08/21 02:00:14;;;;;;;16.42;6.78;;;;;;;;;;5012335;28;20025;-82
2021/08/21 02:02:39;;;;;;;13.38;6.07;;;;;;;;;;5015776;28;20021;-83
2021/08/21 02:05:05;;;;;;;11.73;6.03;;;;;;;;;;5032232;28;20018;-82
2021/08/21 02:07:31;;;;;;;17.08;5.88;;;;;;;;;;5021983;28;20022;-82
2021/08/21 02:09:56;;;;;;;9.95;5.65;;;;;;;;;;5023542;28;20109;-82
2021/08/21 02:12:21;;;;;;;9.80;5.57;;;;;;;;;;5030378;28;20029;-82
2021/08/21 02:14:46;;;;;;;12.07;5.15;;;;;;;;;;5033049;28;20018;-82
2021/08/21 02:17:11;;;;;;;14.02;5.10;;;;;;;;;;5024419;28;20029;-82
2021/08/21 02:19:37;;;;;;;10.45;5.70;;;;;;;;;;5025819;28;20018;-82
2021/08/21 02:22:04;;;;;;;10.23;5.20;;;;;;;;;;5026051;28;20369;-82
2021/08/21 02:24:29;;;;;;;12.77;5.45;;;;;;;;;;5031961;28;20108;-82
2021/08/21 02:26:56;;;;;;;9.77;5.38;;;;;;;;;;5031955;28;20413;-82
2021/08/21 02:29:21;;;;;;;12.38;5.55;;;;;;;;;;5028689;28;20022;-82
2021/08/21 02:31:47;;;;;;;10.02;5.70;;;;;;;;;;5031929;28;20021;-82
2021/08/21 02:34:12;;;;;;;13.20;6.00;;;;;;;;;;5030789;28;20021;-82
2021/08/21 02:36:37;;;;;;;10.95;5.72;;;;;;;;;;5019717;28;20020;-82
2021/08/21 02:39:03;;;;;;;15.90;6.55;;;;;;;;;;5026651;28;20112;-82
2021/08/21 02:41:28;;;;;;;10.32;5.93;;;;;;;;;;5031634;28;20032;-82
2021/08/21 02:43:53;;;;;;;12.50;5.97;;;;;;;;;;5029034;28;20025;-82
2021/08/21 02:46:18;;;;;;;13.77;5.78;;;;;;;;;;5032608;28;20029;-83
2021/08/21 02:48:44;;;;;;;14.38;7.00;;;;;;;;;;5031597;28;20025;-83
2021/08/21 02:51:09;;;;;;;12.23;5.50;;;;;;;;;;5025612;28;20113;-83
2021/08/21 02:53:34;;;;;;;11.52;5.78;;;;;;;;;;5022213;28;20075;-82
2021/08/21 02:56:02;;;;;;;11.25;5.85;;;;;;;;;;5032933;28;20021;-82
2021/08/21 02:58:27;;;;;;;14.75;6.22;;;;;;;;;;5018942;28;20465;-83
2021/08/21 03:00:53;;;;;;;12.68;5.93;;;;;;;;;;5025415;28;20075;-82
2021/08/21 03:03:18;;;;;;;11.43;5.50;;;;;;;;;;5027060;28;20535;-82
2021/08/21 03:05:43;;;;;;;13.15;5.95;;;;;;;;;;5024005;28;20104;-82
2021/08/21 03:08:08;;;;;;;15.35;6.30;;;;;;;;;;5023898;28;20516;-83
2021/08/21 03:10:34;;;;;;;14.88;6.35;;;;;;;;;;5027117;28;20022;-82
2021/08/21 03:12:59;;;;;;;12.82;6.10;;;;;;;;;;5035471;28;20469;-83
2021/08/21 03:15:26;;;;;;;13.05;5.70;;;;;;;;;;5021735;28;20033;-83
2021/08/21 03:17:51;;;;;;;11.18;6.13;;;;;;;;;;5036585;28;20024;-82
2021/08/21 03:20:17;;;;;;;17.25;6.45;;;;;;;;;;5016468;28;20468;-82
2021/08/21 03:22:42;;;;;;;8.85;5.40;;;;;;;;;;5034516;28;20091;-83
2021/08/21 03:25:07;;;;;;;10.93;5.63;;;;;;;;;;5025500;28;20024;-82
2021/08/21 03:27:33;;;;;;;10.38;5.90;;;;;;;;;;5028599;28;20393;-83
2021/08/21 03:29:58;;;;;;;9.60;5.60;;;;;;;;;;5025300;28;20483;-82
2021/08/21 03:32:23;;;;;;;11.73;5.78;;;;;;;;;;5028689;28;20021;-83
2021/08/21 03:34:48;;;;;;;11.20;6.15;;;;;;;;;;5023390;28;20068;-82
2021/08/21 03:37:13;;;;;;;22.60;6.13;;;;;;;;;;5034172;28;20393;-82
2021/08/21 03:39:39;;;;;;;13.65;5.95;;;;;;;;;;5033150;28;20117;-82
2021/08/21 03:42:05;;;;;;;9.13;5.78;;;;;;;;;;5035015;28;20056;-83
2021/08/21 03:44:30;;;;;;;13.55;6.63;;;;;;;;;;5034634;28;20029;-82
2021/08/21 03:46:55;;;;;;;13.25;6.07;;;;;;;;;;5031072;28;20056;-83
2021/08/21 03:49:21;;;;;;;11.38;6.82;;;;;;;;;;5030343;28;20116;-82
2021/08/21 03:51:46;;;;;;;12.45;7.22;;;;;;;;;;5034953;28;20043;-82
2021/08/21 03:54:11;;;;;;;12.75;6.88;;;;;;;;;;5033209;28;20599;-83
2021/08/21 03:56:36;;;;;;;13.90;7.80;;;;;;;;;;5034019;28;20465;-82
2021/08/21 03:59:02;;;;;;;16.55;7.32;;;;;;;;;;5034882;28;20056;-82
2021/08/21 04:01:27;;;;;;;16.10;7.80;;;;;;;;;;5029313;28;20022;-82
2021/08/21 04:03:55;;;;;;;16.08;7.63;;;;;;;;;;5016680;28;20026;-82
2021/08/21 04:06:21;;;;;;;19.92;8.20;;;;;;;;;;5030039;28;20037;-82
2021/08/21 04:08:46;;;;;;;15.65;7.13;;;;;;;;;;5031258;28;20026;-82
2021/08/21 04:11:11;;;;;;;14.38;7.95;;;;;;;;;;5031899;28;20104;-82
2021/08/21 04:13:36;;;;;;;13.75;6.63;;;;;;;;;;5022104;28;20076;-82
2021/08/21 04:16:01;;;;;;;11.88;7.07;;;;;;;;;;5034834;28;20017;-83
2021/08/21 04:18:27;;;;;;;11.63;5.97;;;;;;;;;;5031350;28;20023;-82
2021/08/21 04:20:52;;;;;;;11.27;6.68;;;;;;;;;;5021802;28;20060;-82
2021/08/21 04:23:17;;;;;;;14.60;6.20;;;;;;;;;;5025384;28;20025;-83
2021/08/21 04:25:42;;;;;;;11.20;6.63;;;;;;;;;;5031042;28;20021;-82
2021/08/21 04:28:07;;;;;;;12.13;5.88;;;;;;;;;;5027248;28;20479;-82
2021/08/21 04:30:33;;;;;;;11.88;5.60;;;;;;;;;;5035305;28;20100;-81
2021/08/21 04:32:58;;;;;;;11.95;6.20;;;;;;;;;;5033797;28;20009;-82
2021/08/21 04:35:23;;;;;;;10.38;6.45;;;;;;;;;;5030290;28;20377;-82
2021/08/21 04:37:48;;;;;;;13.88;6.38;;;;;;;;;;5021912;28;20371;-82
2021/08/21 04:40:14;;;;;;;10.10;6.30;;;;;;;;;;5034061;28;20470;-82
2021/08/21 04:42:39;;;;;;;14.48;5.85;;;;;;;;;;5033736;28;20056;-82
2021/08/21 04:45:05;;;;;;;12.20;6.63;;;;;;;;;;5028293;28;20022;-83
2021/08/21 04:47:30;;;;;;;11.43;6.28;;;;;;;;;;5033455;28;20358;-82
2021/08/21 04:49:56;;;;;;;10.07;5.88;;;;;;;;;;5021971;28;20017;-82
2021/08/21 04:52:21;;;;;;;11.70;6.05;;;;;;;;;;5021562;28;20033;-83
2021/08/21 04:54:47;;;;;;;12.63;6.43;;;;;;;;;;5025170;28;20526;-82
2021/08/21 04:57:12;;;;;;;9.07;5.50;;;;;;;;;;5033415;28;20049;-83
2021/08/21 04:59:37;;;;;;;9.35;5.70;;;;;;;;;;5033535;28;20075;-82
2021/08/21 05:02:03;;;;;;;13.88;6.57;;;;;;;;;;5027034;28;20022;-82
2021/08/21 05:04:28;;;;;;;10.88;6.20;;;;;;;;;;5027236;28;20084;-82
2021/08/21 05:06:53;;;;;;;16.35;6.30;;;;;;;;;;5033063;28;20040;-82
2021/08/21 05:09:18;;;;;;;10.95;5.35;;;;;;;;;;5033328;28;20048;-82
2021/08/21 05:11:43;;;;;;;9.93;6.47;;;;;;;;;;5022780;28;20068;-83
2021/08/21 05:14:08;;;;;;;15.63;7.03;;;;;;;;;;5033120;28;20635;-82
2021/08/21 05:16:35;;;;;;;12.80;6.20;;;;;;;;;;5031625;28;20027;-82
2021/08/21 05:19:08;;;;;;;9.75;6.10;;;;;;;;;;5022213;28;20108;-82
2021/08/21 05:21:36;;;;;;;13.73;7.03;;;;;;;;;;5023574;28;20025;-82
2021/08/21 05:24:02;;;;;;;15.77;7.38;;;;;;;;;;5028997;28;20666;-83
2021/08/21 05:26:30;;;;;;;14.13;7.22;;;;;;;;;;5016506;28;20034;-83
2021/08/21 05:28:55;;;;;;;12.52;6.57;;;;;;;;;;5025354;28;20046;-82
2021/08/21 05:31:20;;;;;;;12.65;7.63;;;;;;;;;;5034431;28;20021;-82
2021/08/21 05:33:46;;;;;;;11.77;7.50;;;;;;;;;;5019594;28;20017;-82
2021/08/21 05:36:11;;;;;;;13.10;5.75;;;;;;;;;;5033351;28;20500;-82
2021/08/21 05:38:37;;;;;;;14.35;6.25;;;;;;;;;;5022707;28;20478;-82
2021/08/21 05:41:02;;;;;;;14.02;6.00;;;;;;;;;;5021938;28;20484;-83
2021/08/21 05:43:27;;;;;;;9.55;5.65;;;;;;;;;;5021566;28;20037;-82
2021/08/21 05:45:53;;;;;;;10.23;5.90;;;;;;;;;;5014290;28;20560;-82
2021/08/21 05:48:18;;;;;;;16.05;7.35;;;;;;;;;;5023713;28;20369;-82
2021/08/21 05:50:43;;;;;;;13.82;7.90;;;;;;;;;;5028825;28;20062;-82
2021/08/21 05:53:08;;;;;;;16.85;8.50;;;;;;;;;;5024999;28;20087;-82
2021/08/21 05:55:33;;;;;;;15.57;8.18;;;;;;;;;;5032403;28;20018;-83
2021/08/21 05:57:59;;;;;;;16.15;7.68;;;;;;;;;;5029263;28;20033;-82
2021/08/21 06:00:25;;;;;;;15.10;8.32;;;;;;;;;;5017087;28;20022;-82
2021/08/21 06:02:50;;;;;;;19.65;8.23;;;;;;;;;;5027836;28;20028;-83
2021/08/21 06:05:15;;;;;;;15.32;7.82;;;;;;;;;;5011996;28;20084;-84
2021/08/21 06:07:41;;;;;;;13.60;7.50;;;;;;;;;;5013014;28;20022;-84
2021/08/21 06:10:07;;;;;;;14.52;7.90;;;;;;;;;;5015600;28;20018;-84
2021/08/21 06:12:32;;;;;;;15.85;7.68;;;;;;;;;;5027147;28;20666;-84
2021/08/21 06:14:57;;;;;;;13.02;7.55;;;;;;;;;;5019209;28;20025;-84
2021/08/21 06:17:23;;;;;;;16.88;7.85;;;;;;;;;;5016554;28;20079;-84
2021/08/21 06:19:48;;;;;;;12.80;7.72;;;;;;;;;;5027947;28;20438;-84
2021/08/21 06:22:13;;;;;;;12.90;7.85;;;;;;;;;;5020530;28;20025;-84
2021/08/21 06:24:40;;;;;;;14.35;8.25;;;;;;;;;;5012857;28;20058;-84
2021/08/21 06:27:05;;;;;;;16.48;9.05;;;;;;;;;;5026164;28;20055;-84
2021/08/21 06:29:34;;;;;;;19.55;9.07;;;;;;;;;;5022432;28;20438;-85
2021/08/21 06:32:01;;;;;;;17.42;9.07;;;;;;;;;;5014449;28;20025;-84
2021/08/21 06:34:29;;;;;;;15.77;8.85;;;;;;;;;;5013691;28;20022;-84
2021/08/21 06:36:55;;;;;;;14.40;8.90;;;;;;;;;;5022500;28;20048;-84
2021/08/21 06:39:20;;;;;;;16.23;9.02;;;;;;;;;;5025189;28;20017;-85
2021/08/21 06:41:45;;;;;;;15.57;8.80;;;;;;;;;;5026234;28;20018;-84
2021/08/21 06:44:10;;;;;;;15.65;9.50;;;;;;;;;;5023275;28;20076;-85
2021/08/21 06:46:36;;;;;;;19.08;9.60;;;;;;;;;;5017332;28;20108;-84
2021/08/21 06:49:01;;;;;;;17.73;10.32;;;;;;;;;;5023605;28;20040;-84
2021/08/21 06:51:26;;;;;;;21.13;10.98;;;;;;;;;;5012694;28;20528;-84
2021/08/21 06:53:51;;;;;;;20.25;11.63;;;;;;;;;;5016294;28;20410;-84
2021/08/21 06:56:17;;;;;;;16.33;9.68;;;;;;;;;;5027635;28;20025;-85
2021/08/21 06:58:43;;;;;;;18.17;9.38;;;;;;;;;;5020627;28;20060;-85
2021/08/21 07:01:11;;;;;;;20.40;10.20;;;;;;;;;;5017008;28;20112;-84
2021/08/21 07:03:36;;;;;;;15.15;9.50;;;;;;;;;;5013349;28;20038;-85
2021/08/21 07:06:01;;;;;;;15.90;8.90;;;;;;;;;;5012780;28;20022;-85
2021/08/21 07:08:26;;;;;;;14.98;8.52;;;;;;;;;;5011207;28;20609;-85
2021/08/21 07:10:52;;;;;;;11.73;7.75;;;;;;;;;;5014982;28;20018;-84
2021/08/21 07:13:17;;;;;;;13.25;8.63;;;;;;;;;;5016771;28;20049;-84
2021/08/21 07:15:42;;;;;;;14.20;8.50;;;;;;;;;;5020817;28;20018;-84
2021/08/21 07:18:07;;;;;;;14.65;8.35;;;;;;;;;;5020237;28;20067;-85
2021/08/21 07:20:33;;;;;;;12.07;7.43;;;;;;;;;;5017981;28;20505;-84
2021/08/21 07:22:58;;;;;;;13.77;7.97;;;;;;;;;;5021719;28;20108;-85
2021/08/21 07:25:23;;;;;;;12.95;7.60;;;;;;;;;;5016815;28;20026;-85
2021/08/21 07:27:49;;;;;;;13.48;6.53;;;;;;;;;;5017037;28;20049;-84
2021/08/21 07:30:14;;;;;;;10.70;6.15;;;;;;;;;;5024061;28;20029;-85
2021/08/21 07:32:39;;;;;;;10.20;5.30;;;;;;;;;;5016922;28;20437;-85
2021/08/21 07:35:05;;;;;;;9.80;5.80;;;;;;;;;;5021362;28;20041;-84
2021/08/21 07:37:30;;;;;;;13.40;6.38;;;;;;;;;;5020318;28;20029;-85
2021/08/21 07:39:56;;;;;;;11.32;5.93;;;;;;;;;;5019558;28;20124;-84
2021/08/21 07:42:21;;;;;;;11.38;6.03;;;;;;;;;;5020427;28;20126;-85
2021/08/21 07:44:47;;;;;;;8.77;5.38;;;;;;;;;;5018851;28;20133;-85
2021/08/21 07:47:12;;;;;;;9.77;5.45;;;;;;;;;;5016841;28;20034;-84
2021/08/21 07:49:37;;;;;;;11.32;5.40;;;;;;;;;;5020230;28;20500;-85
2021/08/21 07:52:02;;;;;;;10.20;5.40;;;;;;;;;;5020610;28;20029;-85
2021/08/21 07:54:28;;;;;;;10.80;4.82;;;;;;;;;;5013322;28;20026;-85
2021/08/21 07:56:53;;;;;;;10.63;4.20;;;;;;;;;;5015580;28;20020;-85
2021/08/21 07:59:18;;;;;;;5.88;3.72;;;;;;;;;;5014640;28;20054;-85
2021/08/21 08:01:43;;;;;;;6.32;3.90;;;;;;;;;;5035509;28;20040;-85
2021/08/21 08:04:08;;;;;;;6.10;3.53;;;;;;;;;;5023868;28;20429;-85
2021/08/21 08:06:34;;;;;;;5.28;3.30;;;;;;;;;;5018439;28;20075;-85
2021/08/21 08:08:59;;;;;;;6.25;3.40;;;;;;;;;;5034382;28;20013;-85
2021/08/21 08:11:24;;;;;;;6.85;3.22;;;;;;;;;;5016967;28;20018;-85
2021/08/21 08:13:49;;;;;;;5.78;3.38;;;;;;;;;;5022634;28;20155;-85
2021/08/21 08:16:14;;;;;;;9.30;3.47;;;;;;;;;;5014830;28;20109;-85
2021/08/21 08:18:40;;;;;;;4.32;2.78;;;;;;;;;;5043445;28;20030;-85
2021/08/21 08:21:05;;;;;;;7.18;3.67;;;;;;;;;;5015497;28;20017;-85
2021/08/21 08:23:30;;;;;;;10.15;3.78;;;;;;;;;;5012695;28;20021;-85
2021/08/21 08:25:55;;;;;;;7.05;3.60;;;;;;;;;;5015963;28;20028;-85
2021/08/21 08:28:20;;;;;;;6.60;3.75;;;;;;;;;;5041304;28;20026;-85
2021/08/21 08:30:46;;;;;;;7.25;3.90;;;;;;;;;;5013137;28;20060;-85
2021/08/21 08:33:11;;;;;;;5.50;3.35;;;;;;;;;;5008370;28;20057;-85
2021/08/21 08:35:36;;;;;;;6.03;3.20;;;;;;;;;;5012066;28;20037;-85
2021/08/21 08:38:01;;;;;;;11.30;3.58;;;;;;;;;;5011458;28;20029;-82
2021/08/21 08:40:27;;;;;;;5.75;3.50;;;;;;;;;;5010825;28;20439;-82
2021/08/21 08:42:52;;;;;;;6.30;3.33;;;;;;;;;;5011017;28;20022;-82
2021/08/21 08:45:17;;;;;;;6.88;3.53;;;;;;;;;;5013220;28;20121;-82
2021/08/21 08:47:43;;;;;;;10.52;4.03;;;;;;;;;;5012146;28;20041;-82
2021/08/21 08:50:09;;;;;;;5.05;3.10;;;;;;;;;;5045646;28;20469;-82
2021/08/21 08:52:35;;;;;;;9.00;3.20;;;;;;;;;;5012312;28;20022;-82
2021/08/21 08:55:00;;;;;;;7.43;2.85;;;;;;;;;;5012689;28;20371;-82
2021/08/21 08:57:36;;;;;;;6.72;2.75;;;;;;;;;;5013526;28;20017;-82
2021/08/21 09:00:03;;;;;;;6.50;2.30;;;;;;;;;;5012515;28;20041;-83
2021/08/21 09:02:36;;;;;;;6.53;3.03;;;;;;;;;;5012383;28;20034;-82
2021/08/21 09:05:03;;;;;;;4.47;2.30;;;;;;;;;;5012238;28;20234;-81
2021/08/21 09:07:49;;;;;;;5.45;2.22;;;;;;;;;;5011513;28;20525;-81
2021/08/21 09:10:25;;;;;;;5.00;2.50;;;;;;;;;;5024898;28;20397;-81
2021/08/21 09:13:01;;;;;;;5.55;2.72;;;;;;;;;;5012231;28;20025;-81
2021/08/21 09:15:28;;;;;;;6.25;2.40;;;;;;;;;;5046367;28;20017;-81
2021/08/21 09:18:02;;;;;;;6.63;3.00;;;;;;;;;;5008467;28;20474;-81
2021/08/21 09:20:27;;;;;;;4.63;2.20;;;;;;;;;;5028325;28;20030;-81
2021/08/21 09:22:54;;;;;;;3.60;1.83;;;;;;;;;;5009762;28;20022;-81
2021/08/21 09:25:29;;;;;;;3.13;1.80;;;;;;;;;;5002296;28;20034;-81
2021/08/21 09:27:54;;;;;;;5.80;2.08;;;;;;;;;;5012073;28;20021;-81
2021/08/21 09:30:19;;;;;;;5.40;1.60;;;;;;;;;;5045173;28;20454;-81
2021/08/21 09:32:44;;;;;;;3.35;1.60;;;;;;;;;;5012007;28;20030;-81
2021/08/21 09:35:11;;;;;;;5.68;2.03;;;;;;;;;;5012389;28;20025;-81
2021/08/21 09:37:45;;;;;;;4.32;1.88;;;;;;;;;;5012347;28;20022;-81
2021/08/21 09:40:20;;;;;;;4.90;2.00;;;;;;;;;;5044739;28;20076;-81
2021/08/21 09:42:46;;;;;;;3.58;1.98;;;;;;;;;;5043841;28;20056;-80
2021/08/21 09:45:11;;;;;;;4.75;1.95;;;;;;;;;;5012652;28;20030;-82
2021/08/21 09:47:38;;;;;;;7.60;2.38;;;;;;;;;;5011093;28;20032;-81
2021/08/21 09:50:13;;;;;;;3.05;1.90;;;;;;;;;;5043379;28;20018;-80
2021/08/21 09:52:38;;;;;;;2.60;1.80;;;;;;;;;;5012464;28;20079;-81
2021/08/21 09:55:04;;;;;;;4.32;2.15;;;;;;;;;;5009778;28;20478;-84
2021/08/21 09:57:30;;;;;;;5.07;1.65;;;;;;;;;;5010595;28;20053;-83
2021/08/21 09:59:59;;;;;;;2.78;1.48;;;;;;;;;;5013459;28;20018;-83
2021/08/21 10:02:25;;;;;;;2.47;1.40;;;;;;;;;;5014459;28;20018;-84
2021/08/21 10:04:51;;;;;;;4.85;1.60;;;;;;;;;;5014568;28;20030;-84
2021/08/21 10:07:20;;;;;;;3.42;1.70;;;;;;;;;;5012522;28;20030;-84
2021/08/21 10:09:46;;;;;;;2.88;1.67;;;;;;;;;;5010905;28;20010;-84
2021/08/21 10:12:12;;;;;;;2.50;1.77;;;;;;;;;;5017139;28;20362;-81
2021/08/21 10:14:42;;;;;;;2.97;1.58;;;;;;;;;;5020512;28;20068;-82
2021/08/21 10:17:08;;;;;;;3.25;1.90;;;;;;;;;;5046814;28;20022;-81
2021/08/21 10:19:35;;;;;;;3.75;1.73;;;;;;;;;;5014261;28;20347;-81
2021/08/21 10:22:01;;;;;;;5.63;1.70;;;;;;;;;;5007874;28;20018;-81
2021/08/21 10:24:26;;;;;;;4.05;1.85;;;;;;;;;;5012968;28;20370;-81
2021/08/21 10:26:55;;;;;;;3.83;1.88;;;;;;;;;;5012936;28;20022;-81
2021/08/21 10:29:21;;;;;;;2.95;1.75;;;;;;;;;;5014451;28;20025;-82
2021/08/21 10:31:49;;;;;;;2.05;1.40;;;;;;;;;;5011667;28;20025;-81
2021/08/21 10:34:15;;;;;;;4.70;1.50;;;;;;;;;;5058332;28;20009;-81
2021/08/21 10:36:49;;;;;;;5.10;1.98;;;;;;;;;;5023485;28;20022;-82
2021/08/21 10:39:19;;;;;;;2.45;1.35;;;;;;;;;;5013209;28;20022;-81
2021/08/21 10:41:45;;;;;;;2.22;1.42;;;;;;;;;;5017519;28;20030;-81
2021/08/21 10:44:10;;;;;;;1.98;1.40;;;;;;;;;;5054459;28;20533;-81
2021/08/21 10:46:35;;;;;;;1.50;1.20;;;;;;;;;;5026493;28;20029;-81
2021/08/21 10:49:05;;;;;;;2.22;1.27;;;;;;;;;;5025717;28;20465;-81
2021/08/21 10:51:45;;;;;;;2.50;1.30;;;;;;;;;;5018717;28;20053;-81
2021/08/21 10:54:40;;;;;;;7.53;1.48;;;;;;;;;;5044756;28;20030;-81
2021/08/21 10:57:26;;;;;;;2.10;1.50;;;;;;;;;;5010762;28;21358;-81
2021/08/21 10:59:51;;;;;;;3.00;1.38;;;;;;;;;;5023980;28;20030;-82
2021/08/21 11:02:20;;;;;;;2.70;1.73;;;;;;;;;;5011189;28;20033;-81
2021/08/21 11:04:45;;;;;;;2.65;1.45;;;;;;;;;;5051689;28;20393;-81
2021/08/21 11:07:29;;;;;;;3.22;1.40;;;;;;;;;;5012887;28;20022;-81
2021/08/21 11:10:14;;;;;;;1.75;1.20;;;;;;;;;;5044109;28;20445;-81
2021/08/21 11:12:40;;;;;;;2.53;1.48;;;;;;;;;;5004198;28;20478;-81
2021/08/21 11:15:38;;;;;;;2.33;1.40;;;;;;;;;;5011741;28;20029;-81
2021/08/21 11:18:05;;;;;;;3.35;1.27;;;;;;;;;;4970851;28;20109;-81
2021/08/21 11:20:35;;;;;;;5.20;1.50;;;;;;;;;;5011692;28;20034;-81
2021/08/21 11:23:06;;;;;;;1.90;1.40;;;;;;;;;;5014607;28;20469;-81
2021/08/21 11:25:38;;;;;;;4.32;1.73;;;;;;;;;;5008103;28;20021;-82
2021/08/21 11:28:08;;;;;;;2.25;1.35;;;;;;;;;;5016901;28;20068;-81
2021/08/21 11:30:37;;;;;;;2.97;1.42;;;;;;;;;;5013568;28;20184;-81
2021/08/21 11:33:08;;;;;;;2.47;1.42;;;;;;;;;;5014169;28;20040;-82
2021/08/21 11:35:54;;;;;;;3.78;1.60;;;;;;;;;;5043130;28;20024;-81
2021/08/21 11:38:29;;;;;;;2.88;1.60;;;;;;;;;;5012782;28;20030;-81
2021/08/21 11:40:56;;;;;;;2.35;1.55;;;;;;;;;;5042660;28;20014;-83
2021/08/21 11:43:23;;;;;;;2.70;1.35;;;;;;;;;;5012755;28;20103;-82
2021/08/21 11:45:49;;;;;;;3.80;1.58;;;;;;;;;;5045827;28;20117;-82
2021/08/21 11:48:14;;;;;;;2.30;1.50;;;;;;;;;;5012663;28;20105;-82
2021/08/21 11:50:40;;;;;;;3.50;1.90;;;;;;;;;;5019118;28;20018;-81
2021/08/21 11:53:06;;;;;;;2.58;1.40;;;;;;;;;;5015929;28;20018;-83
2021/08/21 11:55:31;;;;;;;3.22;1.65;;;;;;;;;;5047121;28;20105;-81
2021/08/21 11:57:57;;;;;;;3.95;2.00;;;;;;;;;;5013525;28;20461;-82
2021/08/21 12:00:24;;;;;;;7.15;1.80;;;;;;;;;;5015073;28;20022;-81
2021/08/21 12:02:56;;;;;;;2.05;1.55;;;;;;;;;;5013013;28;20711;-81
2021/08/21 12:05:32;;;;;;;4.50;1.90;;;;;;;;;;5013864;28;20480;-82
2021/08/21 12:07:58;;;;;;;2.85;1.55;;;;;;;;;;5009327;28;20026;-81
2021/08/21 12:10:24;;;;;;;8.60;1.60;;;;;;;;;;5016829;28;20483;-82
2021/08/21 12:12:54;;;;;;;3.25;1.60;;;;;;;;;;5023600;28;20020;-82
2021/08/21 12:15:20;;;;;;;3.10;1.60;;;;;;;;;;5022451;28;20030;-82
2021/08/21 12:17:46;;;;;;;4.20;1.75;;;;;;;;;;5052666;28;20503;-82
2021/08/21 12:20:11;;;;;;;5.13;1.73;;;;;;;;;;5013856;28;20054;-82
2021/08/21 12:22:36;;;;;;;3.05;1.75;;;;;;;;;;5015892;28;20018;-81
2021/08/21 12:25:02;;;;;;;3.58;1.50;;;;;;;;;;5016790;28;20102;-82
2021/08/21 12:27:27;;;;;;;2.17;1.75;;;;;;;;;;5020556;28;20026;-82
2021/08/21 12:30:07;;;;;;;11.57;2.35;;;;;;;;;;5020854;28;20104;-82
2021/08/21 12:32:32;;;;;;;5.75;2.05;;;;;;;;;;5015360;28;20048;-82
2021/08/21 12:35:11;;;;;;;4.32;2.10;;;;;;;;;;5025310;28;20050;-82
2021/08/21 12:37:37;;;;;;;3.88;1.83;;;;;;;;;;5019565;28;20044;-81
2021/08/21 12:40:10;;;;;;;2.90;1.50;;;;;;;;;;5019552;28;20033;-82
2021/08/21 12:42:35;;;;;;;3.83;2.10;;;;;;;;;;5022301;28;20087;-81
2021/08/21 12:45:16;;;;;;;4.20;1.60;;;;;;;;;;5017231;28;20034;-82
2021/08/21 12:47:41;;;;;;;3.40;1.58;;;;;;;;;;5015061;28;20099;-81
2021/08/21 12:50:10;;;;;;;6.50;2.22;;;;;;;;;;5017313;28;20461;-82
2021/08/21 12:52:36;;;;;;;2.40;1.70;;;;;;;;;;5023373;28;20103;-81
2021/08/21 12:55:05;;;;;;;5.85;1.83;;;;;;;;;;5020188;28;20034;-82
2021/08/21 12:57:32;;;;;;;3.47;1.63;;;;;;;;;;5013153;28;20014;-82
2021/08/21 13:00:20;;;;;;;4.57;1.88;;;;;;;;;;5021206;28;20017;-82
2021/08/21 13:02:50;;;;;;;5.13;2.05;;;;;;;;;;5005580;28;20037;-82
2021/08/21 13:05:16;;;;;;;3.70;1.98;;;;;;;;;;5025931;28;20022;-81
2021/08/21 13:07:46;;;;;;;3.38;1.75;;;;;;;;;;5010984;28;20237;-82
2021/08/21 13:10:12;;;;;;;2.67;1.95;;;;;;;;;;5050634;28;20026;-82
2021/08/21 13:12:38;;;;;;;6.80;2.08;;;;;;;;;;5011264;28;20054;-83
2021/08/21 13:15:05;;;;;;;5.13;1.85;;;;;;;;;;5010793;28;20022;-83
2021/08/21 13:17:30;;;;;;;4.22;2.00;;;;;;;;;;5016195;28;20021;-82
2021/08/21 13:19:55;;;;;;;3.85;1.70;;;;;;;;;;5026070;28;20465;-82
2021/08/21 13:22:20;;;;;;;5.07;2.30;;;;;;;;;;5013733;28;20053;-82
2021/08/21 13:24:45;;;;;;;2.97;1.50;;;;;;;;;;5016668;28;20014;-83
2021/08/21 13:27:10;;;;;;;2.95;1.70;;;;;;;;;;5014132;28;20032;-82
2021/08/21 13:29:36;;;;;;;3.30;1.50;;;;;;;;;;5019490;28;20030;-83
2021/08/21 13:32:01;;;;;;;3.45;1.75;;;;;;;;;;5025924;28;20381;-82
2021/08/21 13:34:26;;;;;;;4.38;1.95;;;;;;;;;;5019456;28;20476;-82
2021/08/21 13:36:51;;;;;;;5.50;1.70;;;;;;;;;;5015789;28;20030;-83
2021/08/21 13:39:16;;;;;;;4.90;1.83;;;;;;;;;;5053122;28;20476;-83
2021/08/21 13:41:42;;;;;;;4.68;2.10;;;;;;;;;;5027495;28;20068;-82
2021/08/21 13:44:07;;;;;;;3.35;1.83;;;;;;;;;;5021591;28;20075;-83
2021/08/21 13:46:33;;;;;;;5.03;2.08;;;;;;;;;;5013830;28;20033;-83
2021/08/21 13:49:01;;;;;;;3.13;1.80;;;;;;;;;;5016382;28;20053;-83
2021/08/21 13:51:26;;;;;;;4.05;2.17;;;;;;;;;;5025516;28;20083;-83
2021/08/21 13:53:51;;;;;;;4.55;2.13;;;;;;;;;;5028891;28;20056;-83
2021/08/21 13:56:16;;;;;;;6.35;1.58;;;;;;;;;;5015958;28;20028;-82
2021/08/21 13:58:41;;;;;;;6.50;2.03;;;;;;;;;;5016113;28;20026;-82
2021/08/21 14:01:07;;;;;;;3.40;1.98;;;;;;;;;;5012436;28;20025;-82
2021/08/21 14:03:32;;;;;;;2.45;1.73;;;;;;;;;;5019287;28;20025;-83
2021/08/21 14:05:57;;;;;;;9.18;2.00;;;;;;;;;;5007626;28;20026;-83
2021/08/21 14:08:23;;;;;;;4.07;1.77;;;;;;;;;;5014080;28;20057;-82
2021/08/21 14:10:48;;;;;;;3.67;1.83;;;;;;;;;;5014438;28;20489;-83
2021/08/21 14:13:13;;;;;;;3.10;1.58;;;;;;;;;;5048681;28;20045;-83
2021/08/21 14:15:38;;;;;;;2.65;1.60;;;;;;;;;;5017296;28;20080;-83
2021/08/21 14:18:05;;;;;;;5.22;1.88;;;;;;;;;;5021088;28;20025;-82
2021/08/21 14:20:30;;;;;;;4.13;2.10;;;;;;;;;;5026058;28;20021;-83
2021/08/21 14:22:55;;;;;;;4.50;1.80;;;;;;;;;;5015614;28;20026;-82
2021/08/21 14:25:20;;;;;;;4.30;1.90;;;;;;;;;;5015099;28;20121;-82
2021/08/21 14:27:46;;;;;;;3.92;1.70;;;;;;;;;;5010913;28;20088;-82
2021/08/21 14:30:12;;;;;;;3.22;1.75;;;;;;;;;;5021586;28;20022;-83
2021/08/21 14:32:37;;;;;;;10.13;1.92;;;;;;;;;;5011751;28;20014;-83